sensor_id;sensor_type;location;lat;lon;timestamp;temperature;humidity
14283;DHT22;7225;59.282;18.344;2022-08-14T00:02:23;18.90;99.90
14283;DHT22;7225;59.282;18.344;2022-08-14T00:04:53;18.90;99.90
14283;DHT22;7225;59.282;18.344;2022-08-14T00:07:20;18.90;99.90
14283;DHT22;7225;59.282;18.344;2022-08-14T00:09:47;18.90;99.90
14283;DHT22;7225;59.282;18.344;2022-08-14T00:12:38;18.90;99.90
14283;DHT22;7225;59.282;18.344;2022-08-14T00:15:13;18.80;99.90
14283;DHT22;7225;59.282;18.344;2022-08-14T00:17:43;18.90;99.90
14283;DHT22;7225;59.282;18.344;2022-08-14T00:20:24;18.90;99.90
14283;DHT22;7225;59.282;18.344;2022-08-14T00:23:03;18.80;99.90
14283;DHT22;7225;59.282;18.344;2022-08-14T00:25:46;18.80;99.90
14283;DHT22;7225;59.282;18.344;2022-08-14T00:28:34;18.80;99.90
14283;DHT22;7225;59.282;18.344;2022-08-14T00:31:05;18.80;99.90
14283;DHT22;7225;59.282;18.344;2022-08-14T00:33:35;18.70;99.90
14283;DHT22;7225;59.282;18.344;2022-08-14T00:36:21;18.70;99.90
14283;DHT22;7225;59.282;18.344;2022-08-14T00:39:14;18.70;99.90
14283;DHT22;7225;59.282;18.344;2022-08-14T00:41:46;18.60;99.90
14283;DHT22;7225;59.282;18.344;2022-08-14T00:44:16;18.60;99.90
14283;DHT22;7225;59.282;18.344;2022-08-14T00:47:00;18.60;99.90
14283;DHT22;7225;59.282;18.344;2022-08-14T00:49:29;18.60;99.90
14283;DHT22;7225;59.282;18.344;2022-08-14T00:52:11;18.60;99.90
14283;DHT22;7225;59.282;18.344;2022-08-14T00:54:47;18.60;99.90
14283;DHT22;7225;59.282;18.344;2022-08-14T00:57:30;18.60;99.90
14283;DHT22;7225;59.282;18.344;2022-08-14T00:59:59;18.50;99.90
14283;DHT22;7225;59.282;18.344;2022-08-14T01:02:28;18.40;99.90
14283;DHT22;7225;59.282;18.344;2022-08-14T01:04:59;18.40;99.90
14283;DHT22;7225;59.282;18.344;2022-08-14T01:07:28;18.40;99.90
14283;DHT22;7225;59.282;18.344;2022-08-14T01:10:14;18.40;99.90
14283;DHT22;7225;59.282;18.344;2022-08-14T01:12:44;18.40;99.90
14283;DHT22;7225;59.282;18.344;2022-08-14T01:15:14;18.30;99.90
14283;DHT22;7225;59.282;18.344;2022-08-14T01:17:43;18.30;99.90
14283;DHT22;7225;59.282;18.344;2022-08-14T01:20:31;18.40;99.90
14283;DHT22;7225;59.282;18.344;2022-08-14T01:23:18;18.40;99.90
14283;DHT22;7225;59.282;18.344;2022-08-14T01:25:50;18.40;99.90
14283;DHT22;7225;59.282;18.344;2022-08-14T01:28:19;18.30;99.90
14283;DHT22;7225;59.282;18.344;2022-08-14T01:31:16;18.30;99.90
14283;DHT22;7225;59.282;18.344;2022-08-14T01:33:48;18.20;99.90
14283;DHT22;7225;59.282;18.344;2022-08-14T01:36:37;18.20;99.90
14283;DHT22;7225;59.282;18.344;2022-08-14T01:39:13;18.30;99.90
14283;DHT22;7225;59.282;18.344;2022-08-14T01:41:43;18.20;99.90
14283;DHT22;7225;59.282;18.344;2022-08-14T01:44:14;18.30;99.90
14283;DHT22;7225;59.282;18.344;2022-08-14T01:47:07;18.20;99.90
14283;DHT22;7225;59.282;18.344;2022-08-14T01:49:49;18.20;99.90
14283;DHT22;7225;59.282;18.344;2022-08-14T01:52:34;18.10;99.90
14283;DHT22;7225;59.282;18.344;2022-08-14T01:55:25;18.10;99.90
14283;DHT22;7225;59.282;18.344;2022-08-14T01:57:58;18.10;99.90
14283;DHT22;7225;59.282;18.344;2022-08-14T02:00:47;18.10;99.90
14283;DHT22;7225;59.282;18.344;2022-08-14T02:03:23;18.10;99.90
14283;DHT22;7225;59.282;18.344;2022-08-14T02:05:59;18.10;99.90
14283;DHT22;7225;59.282;18.344;2022-08-14T02:08:47;18.10;99.90
14283;DHT22;7225;59.282;18.344;2022-08-14T02:11:22;18.00;99.90
14283;DHT22;7225;59.282;18.344;2022-08-14T02:16:23;17.90;99.90
14283;DHT22;7225;59.282;18.344;2022-08-14T02:18:54;17.90;99.90
14283;DHT22;7225;59.282;18.344;2022-08-14T02:21:26;17.90;99.90
14283;DHT22;7225;59.282;18.344;2022-08-14T02:23:54;17.90;99.90
14283;DHT22;7225;59.282;18.344;2022-08-14T02:26:44;17.90;99.90
14283;DHT22;7225;59.282;18.344;2022-08-14T02:29:34;17.90;99.90
14283;DHT22;7225;59.282;18.344;2022-08-14T02:32:23;18.00;99.90
14283;DHT22;7225;59.282;18.344;2022-08-14T02:35:11;17.90;99.90
14283;DHT22;7225;59.282;18.344;2022-08-14T02:37:47;17.90;99.90
14283;DHT22;7225;59.282;18.344;2022-08-14T02:40:18;17.80;99.90
14283;DHT22;7225;59.282;18.344;2022-08-14T02:42:59;17.70;99.90
14283;DHT22;7225;59.282;18.344;2022-08-14T02:45:31;17.60;99.90
14283;DHT22;7225;59.282;18.344;2022-08-14T02:48:13;17.60;99.90
14283;DHT22;7225;59.282;18.344;2022-08-14T02:51:10;17.50;99.90
14283;DHT22;7225;59.282;18.344;2022-08-14T02:53:41;17.50;99.90
14283;DHT22;7225;59.282;18.344;2022-08-14T02:56:14;17.40;99.90
14283;DHT22;7225;59.282;18.344;2022-08-14T02:59:03;17.40;99.90
14283;DHT22;7225;59.282;18.344;2022-08-14T03:01:34;17.30;99.90
14283;DHT22;7225;59.282;18.344;2022-08-14T03:04:17;17.30;99.90
14283;DHT22;7225;59.282;18.344;2022-08-14T03:06:48;17.30;99.90
14283;DHT22;7225;59.282;18.344;2022-08-14T03:09:36;17.30;99.90
14283;DHT22;7225;59.282;18.344;2022-08-14T03:12:24;17.30;99.90
14283;DHT22;7225;59.282;18.344;2022-08-14T03:15:00;17.20;99.90
14283;DHT22;7225;59.282;18.344;2022-08-14T03:17:45;17.30;99.90
14283;DHT22;7225;59.282;18.344;2022-08-14T03:20:28;17.20;99.90
14283;DHT22;7225;59.282;18.344;2022-08-14T03:22:57;17.20;99.90
14283;DHT22;7225;59.282;18.344;2022-08-14T03:25:32;17.30;99.90
14283;DHT22;7225;59.282;18.344;2022-08-14T03:28:06;17.30;99.90
14283;DHT22;7225;59.282;18.344;2022-08-14T03:30:35;17.30;99.90
14283;DHT22;7225;59.282;18.344;2022-08-14T03:33:09;17.20;99.90
14283;DHT22;7225;59.282;18.344;2022-08-14T03:35:39;17.30;99.90
14283;DHT22;7225;59.282;18.344;2022-08-14T03:38:29;17.30;99.90
14283;DHT22;7225;59.282;18.344;2022-08-14T03:41:22;17.20;99.90
14283;DHT22;7225;59.282;18.344;2022-08-14T03:43:53;17.30;99.90
14283;DHT22;7225;59.282;18.344;2022-08-14T03:46:30;17.30;99.90
14283;DHT22;7225;59.282;18.344;2022-08-14T03:49:21;17.30;99.90
14283;DHT22;7225;59.282;18.344;2022-08-14T03:51:57;17.30;99.90
14283;DHT22;7225;59.282;18.344;2022-08-14T03:54:28;17.40;99.90
14283;DHT22;7225;59.282;18.344;2022-08-14T03:56:57;17.40;99.90
14283;DHT22;7225;59.282;18.344;2022-08-14T03:59:31;17.40;99.90
14283;DHT22;7225;59.282;18.344;2022-08-14T04:02:00;17.50;99.90
14283;DHT22;7225;59.282;18.344;2022-08-14T04:04:31;17.50;99.90
14283;DHT22;7225;59.282;18.344;2022-08-14T04:07:00;17.60;99.90
14283;DHT22;7225;59.282;18.344;2022-08-14T04:09:28;17.60;99.90
14283;DHT22;7225;59.282;18.344;2022-08-14T04:11:55;17.70;99.90
14283;DHT22;7225;59.282;18.344;2022-08-14T04:14:26;17.70;99.90
14283;DHT22;7225;59.282;18.344;2022-08-14T04:16:55;17.80;99.90
14283;DHT22;7225;59.282;18.344;2022-08-14T04:19:24;17.80;99.90
14283;DHT22;7225;59.282;18.344;2022-08-14T04:21:59;17.90;99.90
14283;DHT22;7225;59.282;18.344;2022-08-14T04:24:31;17.90;99.90
14283;DHT22;7225;59.282;18.344;2022-08-14T04:27:11;18.00;99.90
14283;DHT22;7225;59.282;18.344;2022-08-14T04:29:44;18.10;99.90
14283;DHT22;7225;59.282;18.344;2022-08-14T04:32:13;18.20;99.90
14283;DHT22;7225;59.282;18.344;2022-08-14T04:35:02;18.20;99.90
14283;DHT22;7225;59.282;18.344;2022-08-14T04:37:37;18.40;99.90
14283;DHT22;7225;59.282;18.344;2022-08-14T04:40:24;18.40;99.90
14283;DHT22;7225;59.282;18.344;2022-08-14T04:43:11;18.50;99.90
14283;DHT22;7225;59.282;18.344;2022-08-14T04:46:13;18.50;99.90
14283;DHT22;7225;59.282;18.344;2022-08-14T04:49:03;18.60;99.90
14283;DHT22;7225;59.282;18.344;2022-08-14T04:51:35;18.70;99.90
14283;DHT22;7225;59.282;18.344;2022-08-14T04:54:20;18.70;99.90
14283;DHT22;7225;59.282;18.344;2022-08-14T04:56:51;18.70;99.90
14283;DHT22;7225;59.282;18.344;2022-08-14T04:59:23;18.70;99.90
14283;DHT22;7225;59.282;18.344;2022-08-14T05:01:51;18.80;99.90
14283;DHT22;7225;59.282;18.344;2022-08-14T05:04:25;18.80;99.90
14283;DHT22;7225;59.282;18.344;2022-08-14T05:06:53;18.90;99.90
14283;DHT22;7225;59.282;18.344;2022-08-14T05:09:23;18.90;99.90
14283;DHT22;7225;59.282;18.344;2022-08-14T05:11:56;19.00;99.90
14283;DHT22;7225;59.282;18.344;2022-08-14T05:14:44;19.00;99.90
14283;DHT22;7225;59.282;18.344;2022-08-14T05:17:23;19.10;99.90
14283;DHT22;7225;59.282;18.344;2022-08-14T05:20:11;19.10;99.90
14283;DHT22;7225;59.282;18.344;2022-08-14T05:22:58;19.20;99.90
14283;DHT22;7225;59.282;18.344;2022-08-14T05:25:29;19.20;99.90
14283;DHT22;7225;59.282;18.344;2022-08-14T05:28:12;19.30;99.90
14283;DHT22;7225;59.282;18.344;2022-08-14T05:30:51;19.30;99.90
14283;DHT22;7225;59.282;18.344;2022-08-14T05:33:21;19.40;99.90
14283;DHT22;7225;59.282;18.344;2022-08-14T05:35:52;19.40;99.90
14283;DHT22;7225;59.282;18.344;2022-08-14T05:38:20;19.50;99.90
14283;DHT22;7225;59.282;18.344;2022-08-14T05:41:00;19.50;99.90
14283;DHT22;7225;59.282;18.344;2022-08-14T05:43:33;19.60;99.90
14283;DHT22;7225;59.282;18.344;2022-08-14T05:46:14;19.70;99.90
14283;DHT22;7225;59.282;18.344;2022-08-14T05:48:51;19.70;99.90
14283;DHT22;7225;59.282;18.344;2022-08-14T05:51:21;19.70;99.90
14283;DHT22;7225;59.282;18.344;2022-08-14T05:53:50;19.80;99.90
14283;DHT22;7225;59.282;18.344;2022-08-14T05:56:38;19.90;99.90
14283;DHT22;7225;59.282;18.344;2022-08-14T05:59:07;19.90;99.90
14283;DHT22;7225;59.282;18.344;2022-08-14T06:01:35;20.00;99.90
14283;DHT22;7225;59.282;18.344;2022-08-14T06:04:03;20.10;99.90
14283;DHT22;7225;59.282;18.344;2022-08-14T06:06:32;20.10;99.90
14283;DHT22;7225;59.282;18.344;2022-08-14T06:09:05;20.20;99.90
14283;DHT22;7225;59.282;18.344;2022-08-14T06:11:37;20.20;99.90
14283;DHT22;7225;59.282;18.344;2022-08-14T06:14:05;20.30;99.90
14283;DHT22;7225;59.282;18.344;2022-08-14T06:16:51;20.40;99.90
14283;DHT22;7225;59.282;18.344;2022-08-14T06:19:20;20.40;99.90
14283;DHT22;7225;59.282;18.344;2022-08-14T06:21:49;20.50;99.90
14283;DHT22;7225;59.282;18.344;2022-08-14T06:24:26;20.50;99.90
14283;DHT22;7225;59.282;18.344;2022-08-14T06:26:56;20.60;99.90
14283;DHT22;7225;59.282;18.344;2022-08-14T06:29:33;20.60;99.90
14283;DHT22;7225;59.282;18.344;2022-08-14T06:32:03;20.70;99.90
14283;DHT22;7225;59.282;18.344;2022-08-14T06:34:52;20.80;99.90
14283;DHT22;7225;59.282;18.344;2022-08-14T06:37:44;20.80;99.90
14283;DHT22;7225;59.282;18.344;2022-08-14T06:40:20;20.90;99.90
14283;DHT22;7225;59.282;18.344;2022-08-14T06:42:58;20.90;99.90
14283;DHT22;7225;59.282;18.344;2022-08-14T06:45:32;21.00;99.90
14283;DHT22;7225;59.282;18.344;2022-08-14T06:48:11;21.10;99.90
14283;DHT22;7225;59.282;18.344;2022-08-14T06:50:40;21.10;99.90
14283;DHT22;7225;59.282;18.344;2022-08-14T06:53:12;21.30;99.90
14283;DHT22;7225;59.282;18.344;2022-08-14T06:55:42;21.30;99.90
14283;DHT22;7225;59.282;18.344;2022-08-14T06:58:27;21.50;99.90
14283;DHT22;7225;59.282;18.344;2022-08-14T07:00:59;21.60;99.90
14283;DHT22;7225;59.282;18.344;2022-08-14T07:03:55;21.80;99.90
14283;DHT22;7225;59.282;18.344;2022-08-14T07:06:52;22.00;99.90
14283;DHT22;7225;59.282;18.344;2022-08-14T07:09:26;22.20;99.90
14283;DHT22;7225;59.282;18.344;2022-08-14T07:12:14;22.30;99.90
14283;DHT22;7225;59.282;18.344;2022-08-14T07:15:04;22.50;99.90
14283;DHT22;7225;59.282;18.344;2022-08-14T07:17:33;22.60;99.90
14283;DHT22;7225;59.282;18.344;2022-08-14T07:20:04;22.70;99.90
14283;DHT22;7225;59.282;18.344;2022-08-14T07:22:34;22.90;99.90
14283;DHT22;7225;59.282;18.344;2022-08-14T07:25:21;23.00;99.90
14283;DHT22;7225;59.282;18.344;2022-08-14T07:28:06;23.10;99.90
14283;DHT22;7225;59.282;18.344;2022-08-14T07:30:40;23.40;99.90
14283;DHT22;7225;59.282;18.344;2022-08-14T07:33:19;23.40;99.90
14283;DHT22;7225;59.282;18.344;2022-08-14T07:35:58;23.50;99.90
14283;DHT22;7225;59.282;18.344;2022-08-14T07:38:50;23.50;99.90
14283;DHT22;7225;59.282;18.344;2022-08-14T07:41:19;23.40;99.90
14283;DHT22;7225;59.282;18.344;2022-08-14T07:43:48;23.40;99.90
14283;DHT22;7225;59.282;18.344;2022-08-14T07:46:24;23.40;99.90
14283;DHT22;7225;59.282;18.344;2022-08-14T07:48:57;23.30;99.90
14283;DHT22;7225;59.282;18.344;2022-08-14T07:51:26;23.30;99.90
14283;DHT22;7225;59.282;18.344;2022-08-14T07:54:02;23.30;99.90
14283;DHT22;7225;59.282;18.344;2022-08-14T07:56:38;23.30;99.90
14283;DHT22;7225;59.282;18.344;2022-08-14T07:59:16;23.40;99.90
14283;DHT22;7225;59.282;18.344;2022-08-14T08:01:46;23.40;99.90
14283;DHT22;7225;59.282;18.344;2022-08-14T08:04:22;23.50;99.90
14283;DHT22;7225;59.282;18.344;2022-08-14T08:06:54;23.60;99.90
14283;DHT22;7225;59.282;18.344;2022-08-14T08:09:24;23.80;99.90
14283;DHT22;7225;59.282;18.344;2022-08-14T08:12:01;23.90;99.90
14283;DHT22;7225;59.282;18.344;2022-08-14T08:14:33;24.10;99.90
14283;DHT22;7225;59.282;18.344;2022-08-14T08:17:22;24.20;99.90
14283;DHT22;7225;59.282;18.344;2022-08-14T08:19:51;24.30;99.90
14283;DHT22;7225;59.282;18.344;2022-08-14T08:22:18;24.40;99.90
14283;DHT22;7225;59.282;18.344;2022-08-14T08:24:48;24.60;99.90
14283;DHT22;7225;59.282;18.344;2022-08-14T08:27:18;24.60;99.90
14283;DHT22;7225;59.282;18.344;2022-08-14T08:29:50;24.70;99.90
14283;DHT22;7225;59.282;18.344;2022-08-14T08:32:19;24.80;99.90
14283;DHT22;7225;59.282;18.344;2022-08-14T08:34:56;24.90;99.90
14283;DHT22;7225;59.282;18.344;2022-08-14T08:37:28;24.90;99.90
14283;DHT22;7225;59.282;18.344;2022-08-14T08:39:57;25.00;99.90
14283;DHT22;7225;59.282;18.344;2022-08-14T08:42:31;25.10;99.90
14283;DHT22;7225;59.282;18.344;2022-08-14T08:45:08;25.30;99.90
14283;DHT22;7225;59.282;18.344;2022-08-14T08:47:39;25.40;99.90
14283;DHT22;7225;59.282;18.344;2022-08-14T08:50:16;25.40;99.90
14283;DHT22;7225;59.282;18.344;2022-08-14T08:53:02;25.50;99.90
14283;DHT22;7225;59.282;18.344;2022-08-14T08:55:41;25.70;99.90
14283;DHT22;7225;59.282;18.344;2022-08-14T08:58:17;25.70;99.90
14283;DHT22;7225;59.282;18.344;2022-08-14T09:00:56;25.90;99.90
14283;DHT22;7225;59.282;18.344;2022-08-14T09:03:27;26.10;99.90
14283;DHT22;7225;59.282;18.344;2022-08-14T09:05:59;26.20;99.90
14283;DHT22;7225;59.282;18.344;2022-08-14T09:08:33;26.30;99.90
14283;DHT22;7225;59.282;18.344;2022-08-14T09:11:06;26.50;99.90
14283;DHT22;7225;59.282;18.344;2022-08-14T09:13:49;26.70;99.90
14283;DHT22;7225;59.282;18.344;2022-08-14T09:16:20;26.80;99.90
14283;DHT22;7225;59.282;18.344;2022-08-14T09:18:51;26.90;99.90
14283;DHT22;7225;59.282;18.344;2022-08-14T09:21:22;27.20;99.90
14283;DHT22;7225;59.282;18.344;2022-08-14T09:23:52;27.40;99.90
14283;DHT22;7225;59.282;18.344;2022-08-14T09:26:43;27.30;99.90
14283;DHT22;7225;59.282;18.344;2022-08-14T09:29:18;27.30;99.90
14283;DHT22;7225;59.282;18.344;2022-08-14T09:31:55;27.30;99.90
14283;DHT22;7225;59.282;18.344;2022-08-14T09:35:08;27.40;99.90
14283;DHT22;7225;59.282;18.344;2022-08-14T09:38:05;27.10;99.90
14283;DHT22;7225;59.282;18.344;2022-08-14T09:41:04;27.20;99.90
14283;DHT22;7225;59.282;18.344;2022-08-14T09:46:09;27.60;99.90
14283;DHT22;7225;59.282;18.344;2022-08-14T09:48:43;27.70;99.90
14283;DHT22;7225;59.282;18.344;2022-08-14T09:51:21;27.80;99.90
14283;DHT22;7225;59.282;18.344;2022-08-14T09:54:02;28.10;99.90
14283;DHT22;7225;59.282;18.344;2022-08-14T09:56:50;28.10;99.90
14283;DHT22;7225;59.282;18.344;2022-08-14T09:59:23;28.20;99.90
14283;DHT22;7225;59.282;18.344;2022-08-14T10:01:55;28.30;99.90
14283;DHT22;7225;59.282;18.344;2022-08-14T10:04:25;28.50;99.90
14283;DHT22;7225;59.282;18.344;2022-08-14T10:07:05;28.60;99.90
14283;DHT22;7225;59.282;18.344;2022-08-14T10:09:49;28.70;99.90
14283;DHT22;7225;59.282;18.344;2022-08-14T10:12:45;28.80;99.90
14283;DHT22;7225;59.282;18.344;2022-08-14T10:15:22;28.80;99.90
14283;DHT22;7225;59.282;18.344;2022-08-14T10:18:12;28.80;99.90
14283;DHT22;7225;59.282;18.344;2022-08-14T10:20:56;28.80;99.90
14283;DHT22;7225;59.282;18.344;2022-08-14T10:23:26;28.90;99.90
14283;DHT22;7225;59.282;18.344;2022-08-14T10:26:06;28.90;99.90
14283;DHT22;7225;59.282;18.344;2022-08-14T10:28:48;28.90;99.90
14283;DHT22;7225;59.282;18.344;2022-08-14T10:31:37;29.00;99.90
14283;DHT22;7225;59.282;18.344;2022-08-14T10:34:18;28.90;99.90
14283;DHT22;7225;59.282;18.344;2022-08-14T10:37:08;28.90;99.90
14283;DHT22;7225;59.282;18.344;2022-08-14T10:39:57;28.90;99.70
14283;DHT22;7225;59.282;18.344;2022-08-14T10:42:40;28.90;98.50
14283;DHT22;7225;59.282;18.344;2022-08-14T10:47:49;28.60;98.80
14283;DHT22;7225;59.282;18.344;2022-08-14T10:50:40;28.50;98.70
14283;DHT22;7225;59.282;18.344;2022-08-14T10:53:13;28.40;99.20
14283;DHT22;7225;59.282;18.344;2022-08-14T10:55:42;28.30;99.90
14283;DHT22;7225;59.282;18.344;2022-08-14T10:58:12;28.10;99.90
14283;DHT22;7225;59.282;18.344;2022-08-14T11:00:54;27.90;99.90
14283;DHT22;7225;59.282;18.344;2022-08-14T11:03:23;28.00;99.90
14283;DHT22;7225;59.282;18.344;2022-08-14T11:06:18;27.90;99.90
14283;DHT22;7225;59.282;18.344;2022-08-14T11:08:51;27.80;99.90
14283;DHT22;7225;59.282;18.344;2022-08-14T11:11:22;27.80;99.90
14283;DHT22;7225;59.282;18.344;2022-08-14T11:14:04;28.00;99.90
14283;DHT22;7225;59.282;18.344;2022-08-14T11:16:36;28.10;99.90
14283;DHT22;7225;59.282;18.344;2022-08-14T11:19:08;28.30;99.90
14283;DHT22;7225;59.282;18.344;2022-08-14T11:21:38;28.30;99.00
14283;DHT22;7225;59.282;18.344;2022-08-14T11:24:14;28.40;99.10
14283;DHT22;7225;59.282;18.344;2022-08-14T11:27:07;28.40;99.90
14283;DHT22;7225;59.282;18.344;2022-08-14T11:29:37;28.30;99.50
14283;DHT22;7225;59.282;18.344;2022-08-14T11:32:08;28.50;99.90
14283;DHT22;7225;59.282;18.344;2022-08-14T11:34:38;28.50;99.90
14283;DHT22;7225;59.282;18.344;2022-08-14T11:37:10;28.70;99.90
14283;DHT22;7225;59.282;18.344;2022-08-14T11:39:53;28.60;99.90
14283;DHT22;7225;59.282;18.344;2022-08-14T11:42:23;28.80;99.90
14283;DHT22;7225;59.282;18.344;2022-08-14T11:45:12;28.90;99.90
14283;DHT22;7225;59.282;18.344;2022-08-14T11:47:51;28.80;99.90
14283;DHT22;7225;59.282;18.344;2022-08-14T11:50:40;28.70;99.90
14283;DHT22;7225;59.282;18.344;2022-08-14T11:53:27;28.80;99.90
14283;DHT22;7225;59.282;18.344;2022-08-14T11:56:03;28.70;99.90
14283;DHT22;7225;59.282;18.344;2022-08-14T11:58:36;28.80;99.90
14283;DHT22;7225;59.282;18.344;2022-08-14T12:01:07;29.00;99.90
14283;DHT22;7225;59.282;18.344;2022-08-14T12:03:36;29.00;99.90
14283;DHT22;7225;59.282;18.344;2022-08-14T12:06:19;29.10;99.90
14283;DHT22;7225;59.282;18.344;2022-08-14T12:09:02;29.30;99.90
14283;DHT22;7225;59.282;18.344;2022-08-14T12:11:38;29.40;99.90
14283;DHT22;7225;59.282;18.344;2022-08-14T12:14:12;29.50;99.90
14283;DHT22;7225;59.282;18.344;2022-08-14T12:17:05;29.60;99.90
14283;DHT22;7225;59.282;18.344;2022-08-14T12:19:47;29.50;99.90
14283;DHT22;7225;59.282;18.344;2022-08-14T12:22:37;29.40;99.90
14283;DHT22;7225;59.282;18.344;2022-08-14T12:25:13;29.50;99.90
14283;DHT22;7225;59.282;18.344;2022-08-14T12:27:44;29.50;99.90
14283;DHT22;7225;59.282;18.344;2022-08-14T12:33:06;29.70;99.90
14283;DHT22;7225;59.282;18.344;2022-08-14T12:35:45;29.60;99.90
14283;DHT22;7225;59.282;18.344;2022-08-14T12:38:16;29.60;99.90
14283;DHT22;7225;59.282;18.344;2022-08-14T12:40:53;29.20;99.90
14283;DHT22;7225;59.282;18.344;2022-08-14T12:43:22;29.40;99.90
14283;DHT22;7225;59.282;18.344;2022-08-14T12:45:52;29.30;99.90
14283;DHT22;7225;59.282;18.344;2022-08-14T12:48:24;29.20;99.90
14283;DHT22;7225;59.282;18.344;2022-08-14T12:50:59;29.40;99.90
14283;DHT22;7225;59.282;18.344;2022-08-14T12:53:35;29.40;99.90
14283;DHT22;7225;59.282;18.344;2022-08-14T12:56:05;29.30;99.90
14283;DHT22;7225;59.282;18.344;2022-08-14T12:58:56;29.40;99.90
14283;DHT22;7225;59.282;18.344;2022-08-14T13:01:29;29.30;99.90
14283;DHT22;7225;59.282;18.344;2022-08-14T13:04:11;29.30;99.90
14283;DHT22;7225;59.282;18.344;2022-08-14T13:06:45;29.20;99.90
14283;DHT22;7225;59.282;18.344;2022-08-14T13:09:19;29.30;99.90
14283;DHT22;7225;59.282;18.344;2022-08-14T13:11:51;29.20;99.90
14283;DHT22;7225;59.282;18.344;2022-08-14T13:14:43;29.20;99.90
14283;DHT22;7225;59.282;18.344;2022-08-14T13:17:15;28.90;99.90
14283;DHT22;7225;59.282;18.344;2022-08-14T13:19:45;28.80;99.90
14283;DHT22;7225;59.282;18.344;2022-08-14T13:22:15;28.70;99.90
14283;DHT22;7225;59.282;18.344;2022-08-14T13:25:02;28.50;99.90
14283;DHT22;7225;59.282;18.344;2022-08-14T13:27:33;28.50;99.90
14283;DHT22;7225;59.282;18.344;2022-08-14T13:30:08;28.50;99.90
14283;DHT22;7225;59.282;18.344;2022-08-14T13:32:52;28.70;99.90
14283;DHT22;7225;59.282;18.344;2022-08-14T13:35:22;28.80;99.90
14283;DHT22;7225;59.282;18.344;2022-08-14T13:37:52;28.70;99.90
14283;DHT22;7225;59.282;18.344;2022-08-14T13:40:22;28.70;99.90
14283;DHT22;7225;59.282;18.344;2022-08-14T13:42:54;28.80;99.90
14283;DHT22;7225;59.282;18.344;2022-08-14T13:45:25;28.60;99.90
14283;DHT22;7225;59.282;18.344;2022-08-14T13:48:15;28.70;99.90
14283;DHT22;7225;59.282;18.344;2022-08-14T13:51:03;28.70;99.90
14283;DHT22;7225;59.282;18.344;2022-08-14T13:53:35;28.80;99.90
14283;DHT22;7225;59.282;18.344;2022-08-14T13:56:13;28.70;99.90
14283;DHT22;7225;59.282;18.344;2022-08-14T13:59:01;28.60;99.90
14283;DHT22;7225;59.282;18.344;2022-08-14T14:01:30;28.50;99.90
14283;DHT22;7225;59.282;18.344;2022-08-14T14:04:17;28.40;99.90
14283;DHT22;7225;59.282;18.344;2022-08-14T14:06:49;28.30;99.90
14283;DHT22;7225;59.282;18.344;2022-08-14T14:09:27;28.30;99.90
14283;DHT22;7225;59.282;18.344;2022-08-14T14:12:15;28.40;99.90
14283;DHT22;7225;59.282;18.344;2022-08-14T14:15:09;28.30;99.90
14283;DHT22;7225;59.282;18.344;2022-08-14T14:17:38;28.30;99.90
14283;DHT22;7225;59.282;18.344;2022-08-14T14:20:08;28.20;99.90
14283;DHT22;7225;59.282;18.344;2022-08-14T14:23:01;28.10;99.90
14283;DHT22;7225;59.282;18.344;2022-08-14T14:25:43;28.10;99.90
14283;DHT22;7225;59.282;18.344;2022-08-14T14:28:29;27.90;99.90
14283;DHT22;7225;59.282;18.344;2022-08-14T14:31:02;27.80;99.90
14283;DHT22;7225;59.282;18.344;2022-08-14T14:33:34;27.80;99.90
14283;DHT22;7225;59.282;18.344;2022-08-14T14:36:20;27.80;99.90
14283;DHT22;7225;59.282;18.344;2022-08-14T14:39:03;27.90;99.90
14283;DHT22;7225;59.282;18.344;2022-08-14T14:41:36;27.90;99.90
14283;DHT22;7225;59.282;18.344;2022-08-14T14:44:11;27.90;99.90
14283;DHT22;7225;59.282;18.344;2022-08-14T14:46:43;28.00;99.90
14283;DHT22;7225;59.282;18.344;2022-08-14T14:49:19;28.00;99.90
14283;DHT22;7225;59.282;18.344;2022-08-14T14:51:48;28.10;99.90
14283;DHT22;7225;59.282;18.344;2022-08-14T14:54:20;28.10;99.90
14283;DHT22;7225;59.282;18.344;2022-08-14T14:56:59;28.20;99.90
14283;DHT22;7225;59.282;18.344;2022-08-14T14:59:30;28.20;99.90
14283;DHT22;7225;59.282;18.344;2022-08-14T15:02:03;28.20;99.90
14283;DHT22;7225;59.282;18.344;2022-08-14T15:04:35;28.10;99.90
14283;DHT22;7225;59.282;18.344;2022-08-14T15:07:05;28.10;99.90
14283;DHT22;7225;59.282;18.344;2022-08-14T15:09:33;28.00;99.90
14283;DHT22;7225;59.282;18.344;2022-08-14T15:12:01;28.00;99.90
14283;DHT22;7225;59.282;18.344;2022-08-14T15:14:48;27.90;99.90
14283;DHT22;7225;59.282;18.344;2022-08-14T15:17:25;27.80;99.90
14283;DHT22;7225;59.282;18.344;2022-08-14T15:20:03;27.70;99.90
14283;DHT22;7225;59.282;18.344;2022-08-14T15:22:35;27.60;99.90
14283;DHT22;7225;59.282;18.344;2022-08-14T15:25:10;27.50;99.90
14283;DHT22;7225;59.282;18.344;2022-08-14T15:27:44;27.60;99.90
14283;DHT22;7225;59.282;18.344;2022-08-14T15:30:17;27.50;99.90
14283;DHT22;7225;59.282;18.344;2022-08-14T15:32:51;27.40;99.90
14283;DHT22;7225;59.282;18.344;2022-08-14T15:35:20;27.30;99.90
14283;DHT22;7225;59.282;18.344;2022-08-14T15:37:52;27.30;99.90
14283;DHT22;7225;59.282;18.344;2022-08-14T15:40:22;27.10;99.90
14283;DHT22;7225;59.282;18.344;2022-08-14T15:42:51;27.00;99.90
14283;DHT22;7225;59.282;18.344;2022-08-14T15:45:18;26.90;99.90
14283;DHT22;7225;59.282;18.344;2022-08-14T15:47:48;26.70;99.90
14283;DHT22;7225;59.282;18.344;2022-08-14T15:50:18;26.60;99.90
14283;DHT22;7225;59.282;18.344;2022-08-14T15:52:49;26.50;99.90
14283;DHT22;7225;59.282;18.344;2022-08-14T15:55:19;26.50;99.90
14283;DHT22;7225;59.282;18.344;2022-08-14T15:57:50;26.40;99.90
14283;DHT22;7225;59.282;18.344;2022-08-14T16:00:33;26.30;99.90
14283;DHT22;7225;59.282;18.344;2022-08-14T16:03:21;26.20;99.90
14283;DHT22;7225;59.282;18.344;2022-08-14T16:06:08;26.10;99.90
14283;DHT22;7225;59.282;18.344;2022-08-14T16:08:52;25.90;99.90
14283;DHT22;7225;59.282;18.344;2022-08-14T16:11:25;25.90;99.90
14283;DHT22;7225;59.282;18.344;2022-08-14T16:13:58;25.80;99.90
14283;DHT22;7225;59.282;18.344;2022-08-14T16:16:27;25.70;99.90
14283;DHT22;7225;59.282;18.344;2022-08-14T16:19:18;25.60;99.90
14283;DHT22;7225;59.282;18.344;2022-08-14T16:21:48;25.50;99.90
14283;DHT22;7225;59.282;18.344;2022-08-14T16:24:40;25.40;99.90
14283;DHT22;7225;59.282;18.344;2022-08-14T16:27:30;25.30;99.90
14283;DHT22;7225;59.282;18.344;2022-08-14T16:30:10;25.10;99.90
14283;DHT22;7225;59.282;18.344;2022-08-14T16:32:53;25.10;99.90
14283;DHT22;7225;59.282;18.344;2022-08-14T16:35:33;24.90;99.90
14283;DHT22;7225;59.282;18.344;2022-08-14T16:38:25;24.80;99.90
14283;DHT22;7225;59.282;18.344;2022-08-14T16:41:15;24.70;99.90
14283;DHT22;7225;59.282;18.344;2022-08-14T16:43:44;24.70;99.90